sensor_id;sensor_type;location;lat;lon;timestamp;pressure;altitude;pressure_sealevel;temperature;humidity
68508;BME280;55510;49.560;19.090;2022-10-18T00:01:23;97677.84;;;9.11;92.56
68508;BME280;55510;49.560;19.090;2022-10-18T00:04:23;97676.41;;;9.16;92.95
68508;BME280;55510;49.560;19.090;2022-10-18T00:07:24;97675.19;;;9.25;92.67
68508;BME280;55510;49.560;19.090;2022-10-18T00:10:25;97673.59;;;9.37;91.82
68508;BME280;55510;49.560;19.090;2022-10-18T00:13:26;97666.84;;;9.41;91.53
68508;BME280;55510;49.560;19.090;2022-10-18T00:16:27;97667.66;;;9.49;90.49
68508;BME280;55510;49.560;19.090;2022-10-18T00:19:27;97662.94;;;9.44;90.39
68508;BME280;55510;49.560;19.090;2022-10-18T00:22:28;97657.00;;;9.42;89.95
68508;BME280;55510;49.560;19.090;2022-10-18T00:25:29;97660.09;;;9.32;90.07
68508;BME280;55510;49.560;19.090;2022-10-18T00:28:30;97659.28;;;9.32;90.50
68508;BME280;55510;49.560;19.090;2022-10-18T00:31:33;97658.25;;;9.33;90.70
68508;BME280;55510;49.560;19.090;2022-10-18T00:34:34;97657.44;;;9.32;90.55
68508;BME280;55510;49.560;19.090;2022-10-18T00:37:34;97659.66;;;9.22;90.57
68508;BME280;55510;49.560;19.090;2022-10-18T00:40:36;97652.13;;;9.12;90.65
68508;BME280;55510;49.560;19.090;2022-10-18T00:43:51;97654.53;;;9.00;91.15
68508;BME280;55510;49.560;19.090;2022-10-18T00:46:56;97657.41;;;8.92;91.46
68508;BME280;55510;49.560;19.090;2022-10-18T00:50:01;97655.31;;;8.80;91.81
68508;BME280;55510;49.560;19.090;2022-10-18T00:53:04;97651.63;;;8.81;91.39
68508;BME280;55510;49.560;19.090;2022-10-18T00:56:06;97654.53;;;8.87;91.20
68508;BME280;55510;49.560;19.090;2022-10-18T00:59:07;97655.91;;;8.69;91.77
68508;BME280;55510;49.560;19.090;2022-10-18T01:02:08;97655.25;;;8.60;91.78
68508;BME280;55510;49.560;19.090;2022-10-18T01:05:13;97655.97;;;8.40;92.93
68508;BME280;55510;49.560;19.090;2022-10-18T01:11:28;97651.88;;;8.38;93.95
68508;BME280;55510;49.560;19.090;2022-10-18T01:31:18;97650.97;;;8.17;94.71
68508;BME280;55510;49.560;19.090;2022-10-18T01:34:22;97644.81;;;8.10;94.71
68508;BME280;55510;49.560;19.090;2022-10-18T01:37:24;97648.03;;;7.98;94.80
68508;BME280;55510;49.560;19.090;2022-10-18T01:40:27;97645.13;;;7.93;94.39
68508;BME280;55510;49.560;19.090;2022-10-18T01:43:31;97651.38;;;7.79;94.82
68508;BME280;55510;49.560;19.090;2022-10-18T01:46:33;97642.97;;;7.68;94.93
68508;BME280;55510;49.560;19.090;2022-10-18T01:49:35;97639.84;;;7.58;96.04
68508;BME280;55510;49.560;19.090;2022-10-18T01:52:49;97634.41;;;7.45;96.70
68508;BME280;55510;49.560;19.090;2022-10-18T02:06:04;97632.50;;;7.32;97.37
68508;BME280;55510;49.560;19.090;2022-10-18T02:09:17;97627.16;;;7.25;97.73
68508;BME280;55510;49.560;19.090;2022-10-18T02:12:20;97625.69;;;7.22;97.53
68508;BME280;55510;49.560;19.090;2022-10-18T02:15:49;97619.34;;;7.17;97.89
68508;BME280;55510;49.560;19.090;2022-10-18T02:19:00;97628.31;;;7.16;97.77
68508;BME280;55510;49.560;19.090;2022-10-18T02:22:02;97625.59;;;7.09;98.50
68508;BME280;55510;49.560;19.090;2022-10-18T02:25:08;97622.13;;;7.08;98.41
68508;BME280;55510;49.560;19.090;2022-10-18T02:28:10;97617.19;;;7.05;98.46
68508;BME280;55510;49.560;19.090;2022-10-18T02:34:37;97618.41;;;7.03;99.01
68508;BME280;55510;49.560;19.090;2022-10-18T02:37:38;97622.50;;;7.05;99.16
68508;BME280;55510;49.560;19.090;2022-10-18T02:40:39;97624.50;;;7.03;98.96
68508;BME280;55510;49.560;19.090;2022-10-18T02:43:40;97620.69;;;7.06;99.02
68508;BME280;55510;49.560;19.090;2022-10-18T02:46:41;97623.50;;;7.04;98.68
68508;BME280;55510;49.560;19.090;2022-10-18T02:49:42;97620.44;;;7.01;98.45
68508;BME280;55510;49.560;19.090;2022-10-18T02:52:43;97624.72;;;7.02;98.67
68508;BME280;55510;49.560;19.090;2022-10-18T02:55:43;97619.03;;;7.05;98.44
68508;BME280;55510;49.560;19.090;2022-10-18T02:58:44;97627.44;;;7.08;98.64
68508;BME280;55510;49.560;19.090;2022-10-18T03:01:44;97625.78;;;7.07;98.43
68508;BME280;55510;49.560;19.090;2022-10-18T03:04:45;97621.69;;;7.05;98.18
68508;BME280;55510;49.560;19.090;2022-10-18T03:07:46;97629.81;;;7.03;98.46
68508;BME280;55510;49.560;19.090;2022-10-18T03:10:46;97622.06;;;7.02;98.34
68508;BME280;55510;49.560;19.090;2022-10-18T03:13:47;97624.09;;;7.00;98.01
68508;BME280;55510;49.560;19.090;2022-10-18T03:16:50;97626.53;;;7.01;98.44
68508;BME280;55510;49.560;19.090;2022-10-18T03:19:50;97620.84;;;7.04;98.25
68508;BME280;55510;49.560;19.090;2022-10-18T03:22:51;97620.22;;;7.02;97.98
68508;BME280;55510;49.560;19.090;2022-10-18T03:25:51;97617.16;;;6.99;97.67
68508;BME280;55510;49.560;19.090;2022-10-18T03:28:52;97628.31;;;6.94;97.92
68508;BME280;55510;49.560;19.090;2022-10-18T03:31:53;97621.56;;;6.91;98.19
68508;BME280;55510;49.560;19.090;2022-10-18T03:34:53;97632.97;;;6.92;98.12
68508;BME280;55510;49.560;19.090;2022-10-18T03:37:54;97621.13;;;6.88;97.69
68508;BME280;55510;49.560;19.090;2022-10-18T03:40:55;97626.53;;;6.79;97.67
68508;BME280;55510;49.560;19.090;2022-10-18T03:43:55;97624.66;;;6.73;98.20
68508;BME280;55510;49.560;19.090;2022-10-18T03:46:56;97623.66;;;6.74;98.06
68508;BME280;55510;49.560;19.090;2022-10-18T03:49:57;97629.94;;;6.73;98.42
68508;BME280;55510;49.560;19.090;2022-10-18T03:52:57;97625.03;;;6.70;98.39
68508;BME280;55510;49.560;19.090;2022-10-18T03:55:58;97625.03;;;6.70;98.50
68508;BME280;55510;49.560;19.090;2022-10-18T03:58:59;97618.91;;;6.70;98.03
68508;BME280;55510;49.560;19.090;2022-10-18T04:01:59;97614.63;;;6.68;98.46
68508;BME280;55510;49.560;19.090;2022-10-18T04:05:00;97619.28;;;6.66;98.35
68508;BME280;55510;49.560;19.090;2022-10-18T04:08:02;97620.13;;;6.67;98.62
68508;BME280;55510;49.560;19.090;2022-10-18T04:11:06;97621.75;;;6.68;98.67
68508;BME280;55510;49.560;19.090;2022-10-18T04:14:10;97618.84;;;6.63;98.24
68508;BME280;55510;49.560;19.090;2022-10-18T04:17:11;97609.59;;;6.52;98.42
68508;BME280;55510;49.560;19.090;2022-10-18T04:20:12;97620.56;;;6.34;99.38
68508;BME280;55510;49.560;19.090;2022-10-18T04:23:13;97607.16;;;6.35;99.58
68508;BME280;55510;49.560;19.090;2022-10-18T04:26:13;97598.53;;;6.27;99.44
68508;BME280;55510;49.560;19.090;2022-10-18T04:29:16;97612.66;;;6.19;99.83
68508;BME280;55510;49.560;19.090;2022-10-18T04:32:16;97606.28;;;6.13;99.57
68508;BME280;55510;49.560;19.090;2022-10-18T04:35:17;97606.66;;;6.10;100.00
68508;BME280;55510;49.560;19.090;2022-10-18T04:38:19;97608.28;;;6.11;99.93
68508;BME280;55510;49.560;19.090;2022-10-18T04:41:20;97602.38;;;6.09;100.00
68508;BME280;55510;49.560;19.090;2022-10-18T04:44:22;97611.66;;;6.05;100.00
68508;BME280;55510;49.560;19.090;2022-10-18T04:47:23;97607.84;;;6.07;100.00
68508;BME280;55510;49.560;19.090;2022-10-18T04:50:23;97614.56;;;6.10;100.00
68508;BME280;55510;49.560;19.090;2022-10-18T04:53:24;97623.78;;;6.14;100.00
68508;BME280;55510;49.560;19.090;2022-10-18T04:56:25;97617.47;;;6.15;100.00
68508;BME280;55510;49.560;19.090;2022-10-18T04:59:25;97620.22;;;6.07;99.96
68508;BME280;55510;49.560;19.090;2022-10-18T05:02:26;97618.59;;;6.06;100.00
68508;BME280;55510;49.560;19.090;2022-10-18T05:05:27;97624.59;;;6.00;100.00
68508;BME280;55510;49.560;19.090;2022-10-18T05:08:27;97620.59;;;6.04;99.82
68508;BME280;55510;49.560;19.090;2022-10-18T05:11:28;97622.47;;;5.95;100.00
68508;BME280;55510;49.560;19.090;2022-10-18T05:14:29;97628.59;;;5.95;100.00
68508;BME280;55510;49.560;19.090;2022-10-18T05:17:30;97634.25;;;5.92;100.00
68508;BME280;55510;49.560;19.090;2022-10-18T05:20:30;97634.25;;;5.92;100.00
68508;BME280;55510;49.560;19.090;2022-10-18T05:23:31;97636.63;;;5.87;99.86
68508;BME280;55510;49.560;19.090;2022-10-18T05:26:32;97635.34;;;5.83;99.91
68508;BME280;55510;49.560;19.090;2022-10-18T05:29:32;97645.91;;;5.83;99.83
68508;BME280;55510;49.560;19.090;2022-10-18T05:32:33;97634.63;;;5.89;99.56
68508;BME280;55510;49.560;19.090;2022-10-18T05:35:34;97638.00;;;5.83;99.67
68508;BME280;55510;49.560;19.090;2022-10-18T05:38:37;97637.53;;;5.79;99.95
68508;BME280;55510;49.560;19.090;2022-10-18T05:41:38;97638.91;;;5.75;99.93
68508;BME280;55510;49.560;19.090;2022-10-18T05:44:39;97639.53;;;5.77;100.00
68508;BME280;55510;49.560;19.090;2022-10-18T05:47:40;97640.16;;;5.79;100.00
68508;BME280;55510;49.560;19.090;2022-10-18T05:50:41;97632.97;;;5.88;100.00
68508;BME280;55510;49.560;19.090;2022-10-18T05:53:42;97644.59;;;6.02;100.00
68508;BME280;55510;49.560;19.090;2022-10-18T05:56:42;97640.84;;;6.12;99.52
68508;BME280;55510;49.560;19.090;2022-10-18T05:59:43;97640.91;;;6.18;99.30
68508;BME280;55510;49.560;19.090;2022-10-18T06:02:44;97639.56;;;6.22;98.88
68508;BME280;55510;49.560;19.090;2022-10-18T06:05:45;97637.81;;;6.30;98.93
68508;BME280;55510;49.560;19.090;2022-10-18T06:08:47;97648.91;;;6.40;98.67
68508;BME280;55510;49.560;19.090;2022-10-18T06:11:48;97644.13;;;6.50;98.12
68508;BME280;55510;49.560;19.090;2022-10-18T06:14:50;97642.66;;;6.63;97.34
68508;BME280;55510;49.560;19.090;2022-10-18T06:17:51;97647.63;;;6.73;96.81
68508;BME280;55510;49.560;19.090;2022-10-18T06:20:56;97645.16;;;6.86;96.55
68508;BME280;55510;49.560;19.090;2022-10-18T06:23:58;97646.28;;;6.99;95.93
68508;BME280;55510;49.560;19.090;2022-10-18T06:26:58;97647.41;;;7.11;95.48
68508;BME280;55510;49.560;19.090;2022-10-18T06:29:59;97644.69;;;7.26;94.60
68508;BME280;55510;49.560;19.090;2022-10-18T06:33:00;97642.75;;;7.42;93.81
68508;BME280;55510;49.560;19.090;2022-10-18T06:36:15;97645.75;;;7.60;92.93
68508;BME280;55510;49.560;19.090;2022-10-18T06:39:16;97643.03;;;7.82;92.36
68508;BME280;55510;49.560;19.090;2022-10-18T06:42:17;97637.03;;;8.02;91.58
68508;BME280;55510;49.560;19.090;2022-10-18T06:45:17;97637.94;;;8.22;90.87
68508;BME280;55510;49.560;19.090;2022-10-18T06:48:19;97638.84;;;8.43;88.99
68508;BME280;55510;49.560;19.090;2022-10-18T06:51:20;97637.72;;;8.66;88.45
68508;BME280;55510;49.560;19.090;2022-10-18T06:54:21;97641.47;;;8.92;87.54
68508;BME280;55510;49.560;19.090;2022-10-18T06:57:24;97644.94;;;9.12;86.48
68508;BME280;55510;49.560;19.090;2022-10-18T07:00:25;97638.22;;;9.43;85.88
68508;BME280;55510;49.560;19.090;2022-10-18T07:03:25;97626.53;;;9.71;83.45
68508;BME280;55510;49.560;19.090;2022-10-18T07:06:26;97628.72;;;10.01;82.16
68508;BME280;55510;49.560;19.090;2022-10-18T07:09:27;97626.19;;;10.40;81.53
68508;BME280;55510;49.560;19.090;2022-10-18T07:12:28;97628.25;;;11.09;77.65
68508;BME280;55510;49.560;19.090;2022-10-18T07:15:28;97625.78;;;18.12;53.23
68508;BME280;55510;49.560;19.090;2022-10-18T07:18:29;97626.09;;;23.09;38.53
68508;BME280;55510;49.560;19.090;2022-10-18T07:21:30;97625.97;;;25.29;32.92
68508;BME280;55510;49.560;19.090;2022-10-18T07:24:31;97631.09;;;26.66;32.00
68508;BME280;55510;49.560;19.090;2022-10-18T07:27:36;97620.31;;;28.14;28.49
68508;BME280;55510;49.560;19.090;2022-10-18T07:30:37;97616.19;;;30.77;26.01
68508;BME280;55510;49.560;19.090;2022-10-18T07:33:38;97605.56;;;32.42;21.99
68508;BME280;55510;49.560;19.090;2022-10-18T07:36:39;97610.16;;;34.18;21.77
68508;BME280;55510;49.560;19.090;2022-10-18T07:39:40;97605.50;;;35.86;19.66
68508;BME280;55510;49.560;19.090;2022-10-18T07:42:41;97591.94;;;36.85;18.74
68508;BME280;55510;49.560;19.090;2022-10-18T07:45:53;97599.75;;;34.35;19.07
68508;BME280;55510;49.560;19.090;2022-10-18T07:48:54;97593.56;;;35.37;18.68
68508;BME280;55510;49.560;19.090;2022-10-18T07:51:54;97592.69;;;31.21;23.18
68508;BME280;55510;49.560;19.090;2022-10-18T07:54:55;97585.63;;;31.36;23.95
68508;BME280;55510;49.560;19.090;2022-10-18T07:57:56;97581.38;;;31.22;23.29
68508;BME280;55510;49.560;19.090;2022-10-18T08:01:03;97581.03;;;31.40;23.12
68508;BME280;55510;49.560;19.090;2022-10-18T08:04:05;97576.56;;;36.28;19.17
68508;BME280;55510;49.560;19.090;2022-10-18T08:07:05;97568.50;;;40.59;14.12
68508;BME280;55510;49.560;19.090;2022-10-18T08:10:06;97567.19;;;41.02;14.33
68508;BME280;55510;49.560;19.090;2022-10-18T08:13:07;97561.00;;;42.41;13.59
68508;BME280;55510;49.560;19.090;2022-10-18T08:16:10;97566.19;;;44.95;11.57
68508;BME280;55510;49.560;19.090;2022-10-18T08:19:11;97556.59;;;45.70;10.80
68508;BME280;55510;49.560;19.090;2022-10-18T08:22:12;97552.31;;;45.91;9.74
68508;BME280;55510;49.560;19.090;2022-10-18T08:25:13;97545.63;;;47.00;10.31
68508;BME280;55510;49.560;19.090;2022-10-18T08:28:13;97546.97;;;47.68;9.84
68508;BME280;55510;49.560;19.090;2022-10-18T08:31:17;97540.03;;;45.24;10.31
68508;BME280;55510;49.560;19.090;2022-10-18T08:34:18;97530.13;;;47.36;8.69
68508;BME280;55510;49.560;19.090;2022-10-18T08:37:19;97521.81;;;45.41;10.19
68508;BME280;55510;49.560;19.090;2022-10-18T08:40:19;97511.13;;;46.86;9.25
68508;BME280;55510;49.560;19.090;2022-10-18T08:43:34;97515.66;;;47.84;7.90
68508;BME280;55510;49.560;19.090;2022-10-18T08:46:41;97502.28;;;42.61;10.79
68508;BME280;55510;49.560;19.090;2022-10-18T08:50:05;97499.78;;;45.53;9.08
68508;BME280;55510;49.560;19.090;2022-10-18T08:56:14;97497.84;;;42.23;11.74
68508;BME280;55510;49.560;19.090;2022-10-18T08:59:18;97490.38;;;34.95;16.01
68508;BME280;55510;49.560;19.090;2022-10-18T09:05:51;97481.06;;;30.18;21.04
68508;BME280;55510;49.560;19.090;2022-10-18T09:22:01;97477.84;;;34.40;15.34
68508;BME280;55510;49.560;19.090;2022-10-18T09:25:12;97459.28;;;36.03;14.39
68508;BME280;55510;49.560;19.090;2022-10-18T09:35:24;97456.59;;;29.88;20.09
68508;BME280;55510;49.560;19.090;2022-10-18T09:38:30;97454.63;;;26.53;24.74
68508;BME280;55510;49.560;19.090;2022-10-18T09:42:15;97451.44;;;24.94;27.83
68508;BME280;55510;49.560;19.090;2022-10-18T09:45:28;97448.28;;;24.32;27.61
68508;BME280;55510;49.560;19.090;2022-10-18T09:48:39;97438.25;;;22.93;32.32
68508;BME280;55510;49.560;19.090;2022-10-18T09:51:43;97439.66;;;22.00;30.42
68508;BME280;55510;49.560;19.090;2022-10-18T09:54:54;97430.84;;;21.70;32.16
68508;BME280;55510;49.560;19.090;2022-10-18T09:57:59;97433.94;;;21.58;33.81
68508;BME280;55510;49.560;19.090;2022-10-18T10:01:01;97432.34;;;21.33;34.79
68508;BME280;55510;49.560;19.090;2022-10-18T10:04:04;97429.63;;;20.79;35.50
68508;BME280;55510;49.560;19.090;2022-10-18T10:07:12;97435.91;;;20.34;37.23
68508;BME280;55510;49.560;19.090;2022-10-18T10:13:18;97427.13;;;20.53;36.51
68508;BME280;55510;49.560;19.090;2022-10-18T10:16:22;97425.97;;;20.24;36.83
68508;BME280;55510;49.560;19.090;2022-10-18T10:19:25;97417.78;;;20.35;37.11
68508;BME280;55510;49.560;19.090;2022-10-18T10:22:35;97405.63;;;21.26;35.24
68508;BME280;55510;49.560;19.090;2022-10-18T10:25:37;97409.13;;;22.13;33.69
68508;BME280;55510;49.560;19.090;2022-10-18T10:28:41;97400.50;;;22.44;32.58
68508;BME280;55510;49.560;19.090;2022-10-18T10:32:01;97400.69;;;25.39;28.17
68508;BME280;55510;49.560;19.090;2022-10-18T10:35:27;97392.84;;;26.22;26.69
68508;BME280;55510;49.560;19.090;2022-10-18T10:38:30;97392.25;;;29.36;21.80
68508;BME280;55510;49.560;19.090;2022-10-18T10:41:31;97391.53;;;31.51;20.11
68508;BME280;55510;49.560;19.090;2022-10-18T10:44:34;97385.22;;;32.42;18.81
68508;BME280;55510;49.560;19.090;2022-10-18T10:47:36;97385.84;;;32.97;17.75
68508;BME280;55510;49.560;19.090;2022-10-18T11:03:45;97373.84;;;33.36;17.31
68508;BME280;55510;49.560;19.090;2022-10-18T11:10:29;97360.13;;;32.90;17.75
68508;BME280;55510;49.560;19.090;2022-10-18T11:13:51;97346.69;;;33.11;17.23
68508;BME280;55510;49.560;19.090;2022-10-18T11:23:29;97341.00;;;33.27;16.84
68508;BME280;55510;49.560;19.090;2022-10-18T11:26:53;97329.47;;;32.48;17.50
68508;BME280;55510;49.560;19.090;2022-10-18T11:40:14;97322.75;;;33.73;15.93
68508;BME280;55510;49.560;19.090;2022-10-18T11:43:49;97313.47;;;33.58;15.72
68508;BME280;55510;49.560;19.090;2022-10-18T12:00:54;97297.50;;;34.43;15.19
68508;BME280;55510;49.560;19.090;2022-10-18T12:04:13;97288.81;;;34.82;15.15
68508;BME280;55510;49.560;19.090;2022-10-18T12:07:18;97290.03;;;34.89;14.92
68508;BME280;55510;49.560;19.090;2022-10-18T12:10:21;97288.34;;;34.73;14.62
68508;BME280;55510;49.560;19.090;2022-10-18T12:13:38;97284.53;;;33.45;15.72
68508;BME280;55510;49.560;19.090;2022-10-18T12:16:41;97285.34;;;33.45;14.97
68508;BME280;55510;49.560;19.090;2022-10-18T12:19:44;97284.28;;;33.00;15.68
68508;BME280;55510;49.560;19.090;2022-10-18T12:22:58;97277.22;;;32.79;17.12
68508;BME280;55510;49.560;19.090;2022-10-18T12:26:03;97273.25;;;33.53;15.65
68508;BME280;55510;49.560;19.090;2022-10-18T12:29:19;97277.88;;;33.46;15.16
68508;BME280;55510;49.560;19.090;2022-10-18T12:32:25;97275.47;;;33.17;15.62
68508;BME280;55510;49.560;19.090;2022-10-18T12:35:31;97261.53;;;33.33;15.21
68508;BME280;55510;49.560;19.090;2022-10-18T12:38:35;97261.22;;;31.20;17.07
68508;BME280;55510;49.560;19.090;2022-10-18T12:41:38;97258.59;;;31.27;17.02
68508;BME280;55510;49.560;19.090;2022-10-18T12:44:39;97256.94;;;31.78;16.76
68508;BME280;55510;49.560;19.090;2022-10-18T12:47:39;97248.38;;;30.92;18.18
68508;BME280;55510;49.560;19.090;2022-10-18T12:50:41;97246.34;;;31.80;16.86
68508;BME280;55510;49.560;19.090;2022-10-18T12:53:44;97245.97;;;32.01;16.44
68508;BME280;55510;49.560;19.090;2022-10-18T12:56:46;97237.56;;;31.35;17.28
68508;BME280;55510;49.560;19.090;2022-10-18T12:59:47;97240.00;;;31.76;16.81
68508;BME280;55510;49.560;19.090;2022-10-18T13:06:09;97231.88;;;29.83;18.43
68508;BME280;55510;49.560;19.090;2022-10-18T13:09:18;97228.56;;;29.61;19.46
68508;BME280;55510;49.560;19.090;2022-10-18T13:15:43;97214.63;;;27.92;21.08
68508;BME280;55510;49.560;19.090;2022-10-18T13:18:56;97213.59;;;26.22;23.51
68508;BME280;55510;49.560;19.090;2022-10-18T13:22:09;97206.63;;;25.24;25.08
68508;BME280;55510;49.560;19.090;2022-10-18T13:25:25;97208.22;;;24.18;26.38
68508;BME280;55510;49.560;19.090;2022-10-18T13:32:03;97210.44;;;23.11;28.98
68508;BME280;55510;49.560;19.090;2022-10-18T14:05:45;97187.88;;;23.01;30.48
68508;BME280;55510;49.560;19.090;2022-10-18T14:09:07;97188.16;;;22.86;31.27
68508;BME280;55510;49.560;19.090;2022-10-18T14:12:37;97178.97;;;22.59;31.93
68508;BME280;55510;49.560;19.090;2022-10-18T14:15:42;97180.97;;;22.67;31.91
68508;BME280;55510;49.560;19.090;2022-10-18T14:18:46;97183.34;;;22.83;31.65
68508;BME280;55510;49.560;19.090;2022-10-18T14:22:10;97175.94;;;22.47;32.46
68508;BME280;55510;49.560;19.090;2022-10-18T14:25:21;97168.16;;;21.98;33.29
68508;BME280;55510;49.560;19.090;2022-10-18T14:28:22;97173.16;;;21.57;34.05
68508;BME280;55510;49.560;19.090;2022-10-18T14:31:23;97174.00;;;21.20;34.73
68508;BME280;55510;49.560;19.090;2022-10-18T14:34:24;97173.06;;;20.67;35.01
68508;BME280;55510;49.560;19.090;2022-10-18T14:37:31;97172.84;;;20.14;36.10
68508;BME280;55510;49.560;19.090;2022-10-18T14:40:38;97167.44;;;19.85;36.90
68508;BME280;55510;49.560;19.090;2022-10-18T14:43:39;97172.56;;;19.52;37.24
68508;BME280;55510;49.560;19.090;2022-10-18T14:46:45;97173.09;;;19.19;38.43
68508;BME280;55510;49.560;19.090;2022-10-18T14:49:47;97169.41;;;18.94;38.73
68508;BME280;55510;49.560;19.090;2022-10-18T14:52:48;97167.41;;;18.70;40.00
68508;BME280;55510;49.560;19.090;2022-10-18T14:55:54;97169.09;;;18.56;40.41
68508;BME280;55510;49.560;19.090;2022-10-18T14:58:57;97172.38;;;18.37;41.67
68508;BME280;55510;49.560;19.090;2022-10-18T15:02:09;97170.00;;;18.15;42.65
68508;BME280;55510;49.560;19.090;2022-10-18T15:05:22;97162.22;;;17.93;42.44
68508;BME280;55510;49.560;19.090;2022-10-18T15:08:46;97162.81;;;17.69;43.87
68508;BME280;55510;49.560;19.090;2022-10-18T15:11:48;97160.91;;;17.54;43.57
68508;BME280;55510;49.560;19.090;2022-10-18T15:14:50;97174.34;;;17.38;44.09
68508;BME280;55510;49.560;19.090;2022-10-18T15:17:51;97173.81;;;17.21;43.80
68508;BME280;55510;49.560;19.090;2022-10-18T15:21:21;97168.41;;;17.05;45.37
68508;BME280;55510;49.560;19.090;2022-10-18T15:27:30;97157.00;;;16.72;45.77
68508;BME280;55510;49.560;19.090;2022-10-18T15:30:38;97157.78;;;16.62;46.10
68508;BME280;55510;49.560;19.090;2022-10-18T15:33:42;97154.75;;;16.43;48.16
68508;BME280;55510;49.560;19.090;2022-10-18T15:36:42;97156.56;;;16.32;47.01
68508;BME280;55510;49.560;19.090;2022-10-18T15:39:43;97147.38;;;16.18;47.45
68508;BME280;55510;49.560;19.090;2022-10-18T15:42:44;97165.59;;;16.05;48.22
68508;BME280;55510;49.560;19.090;2022-10-18T15:45:45;97166.03;;;15.92;48.95
68508;BME280;55510;49.560;19.090;2022-10-18T15:48:47;97161.06;;;15.78;48.98
68508;BME280;55510;49.560;19.090;2022-10-18T15:51:49;97163.16;;;15.66;49.83
68508;BME280;55510;49.560;19.090;2022-10-18T15:54:50;97175.06;;;15.48;51.73
68508;BME280;55510;49.560;19.090;2022-10-18T15:57:51;97173.84;;;15.28;51.83
68508;BME280;55510;49.560;19.090;2022-10-18T16:00:55;97182.22;;;15.10;52.61
68508;BME280;55510;49.560;19.090;2022-10-18T16:03:57;97178.84;;;14.92;53.49
68508;BME280;55510;49.560;19.090;2022-10-18T16:06:58;97182.41;;;14.75;53.71
68508;BME280;55510;49.560;19.090;2022-10-18T16:09:59;97181.41;;;14.59;54.27
68508;BME280;55510;49.560;19.090;2022-10-18T16:13:00;97186.81;;;14.42;55.36
68508;BME280;55510;49.560;19.090;2022-10-18T16:16:00;97188.00;;;14.29;55.18
68508;BME280;55510;49.560;19.090;2022-10-18T16:19:04;97185.69;;;14.16;55.79
68508;BME280;55510;49.560;19.090;2022-10-18T16:22:05;97188.13;;;14.00;57.04
68508;BME280;55510;49.560;19.090;2022-10-18T16:25:06;97190.59;;;13.85;57.42
68508;BME280;55510;49.560;19.090;2022-10-18T16:28:12;97197.31;;;13.70;58.00
68508;BME280;55510;49.560;19.090;2022-10-18T16:31:18;97189.38;;;13.58;57.87
68508;BME280;55510;49.560;19.090;2022-10-18T16:34:19;97186.66;;;13.41;59.48
68508;BME280;55510;49.560;19.090;2022-10-18T16:37:20;97185.19;;;13.33;59.27
68508;BME280;55510;49.560;19.090;2022-10-18T16:40:23;97180.59;;;13.29;59.23
68508;BME280;55510;49.560;19.090;2022-10-18T16:43:25;97180.94;;;13.20;59.56
68508;BME280;55510;49.560;19.090;2022-10-18T16:46:29;97185.63;;;13.13;60.31
68508;BME280;55510;49.560;19.090;2022-10-18T16:49:30;97180.59;;;13.00;61.64
68508;BME280;55510;49.560;19.090;2022-10-18T16:52:31;97200.66;;;12.85;62.48
68508;BME280;55510;49.560;19.090;2022-10-18T16:55:32;97199.28;;;12.71;64.24
68508;BME280;55510;49.560;19.090;2022-10-18T16:58:33;97185.16;;;12.58;64.11
68508;BME280;55510;49.560;19.090;2022-10-18T17:01:35;97190.31;;;12.48;64.97
68508;BME280;55510;49.560;19.090;2022-10-18T17:04:40;97182.88;;;12.38;65.12
68508;BME280;55510;49.560;19.090;2022-10-18T17:07:49;97206.44;;;12.29;65.87
68508;BME280;55510;49.560;19.090;2022-10-18T17:10:52;97208.91;;;12.19;66.31
68508;BME280;55510;49.560;19.090;2022-10-18T17:13:53;97212.41;;;12.08;66.81
68508;BME280;55510;49.560;19.090;2022-10-18T17:16:54;97211.56;;;11.95;68.20
68508;BME280;55510;49.560;19.090;2022-10-18T17:19:55;97215.59;;;11.86;68.09
68508;BME280;55510;49.560;19.090;2022-10-18T17:22:56;97216.53;;;11.80;68.44
68508;BME280;55510;49.560;19.090;2022-10-18T17:25:57;97219.34;;;11.30;72.00
68508;BME280;55510;49.560;19.090;2022-10-18T17:29:04;97230.41;;;11.15;72.70
68508;BME280;55510;49.560;19.090;2022-10-18T17:32:06;97217.09;;;11.15;72.54
68508;BME280;55510;49.560;19.090;2022-10-18T17:35:07;97217.56;;;10.94;74.21
68508;BME280;55510;49.560;19.090;2022-10-18T17:38:07;97226.06;;;10.72;75.52
68508;BME280;55510;49.560;19.090;2022-10-18T17:41:10;97222.28;;;10.61;76.04
68508;BME280;55510;49.560;19.090;2022-10-18T17:44:11;97219.47;;;10.56;76.84
68508;BME280;55510;49.560;19.090;2022-10-18T17:47:12;97215.53;;;10.58;76.86
68508;BME280;55510;49.560;19.090;2022-10-18T17:50:14;97219.25;;;10.57;76.75
68508;BME280;55510;49.560;19.090;2022-10-18T17:53:15;97218.38;;;10.64;76.30
68508;BME280;55510;49.560;19.090;2022-10-18T17:56:17;97214.38;;;10.54;76.91
68508;BME280;55510;49.560;19.090;2022-10-18T17:59:18;97213.03;;;10.45;76.99
68508;BME280;55510;49.560;19.090;2022-10-18T18:02:19;97216.09;;;10.49;76.73
68508;BME280;55510;49.560;19.090;2022-10-18T18:05:20;97222.22;;;10.49;76.22
68508;BME280;55510;49.560;19.090;2022-10-18T18:08:21;97218.31;;;10.52;76.09
68508;BME280;55510;49.560;19.090;2022-10-18T18:11:23;97216.53;;;10.46;76.95
68508;BME280;55510;49.560;19.090;2022-10-18T18:14:24;97211.66;;;10.42;77.47
68508;BME280;55510;49.560;19.090;2022-10-18T18:17:24;97210.97;;;10.47;76.79
68508;BME280;55510;49.560;19.090;2022-10-18T18:20:27;97221.16;;;10.50;76.58
68508;BME280;55510;49.560;19.090;2022-10-18T18:23:28;97224.41;;;10.52;76.48
68508;BME280;55510;49.560;19.090;2022-10-18T18:26:33;97226.88;;;10.54;76.49
68508;BME280;55510;49.560;19.090;2022-10-18T18:29:34;97208.44;;;10.52;76.64
68508;BME280;55510;49.560;19.090;2022-10-18T18:32:35;97205.78;;;10.52;76.74
68508;BME280;55510;49.560;19.090;2022-10-18T18:35:36;97204.75;;;10.53;76.61
68508;BME280;55510;49.560;19.090;2022-10-18T18:38:38;97204.75;;;10.53;76.66